Latest Weather Observations for Yamba

IDN60801

Issued at 5:35 pm EST Friday 22 August 2014 (issued every 30 minutes, with the page automatically refreshed every 10 minutes)

About weather observations | Map of weather stations | Latest weather observations for NSW | Other Formats
Station Details ID: 058012 Name: YAMBA PILOT STATION Lat: -29.43 Lon: 153.36 Height: 27.4 m
Data from the previous 72 hours. | See also: Recent months at Yamba
Date/Time
EST
Temp
°C
App
Temp
°C
Dew
Point
Rel
Hum
%
Delta-T
°C
Wind Press
QNH
hPa
Press
MSL
hPa
Rain
since 9 am
mm
Dir
 
Spd
km/h
Gust
km/h
Spd
kts
Gust
kts
22/05:30pm 17.2 14.1 15.7 91 0.9 SSE 26 35 14 19 1025.3 - 2.4
22/05:00pm 17.5 14.0 15.5 88 1.2 SE 28 35 15 19 1025.4 - 2.4
22/04:30pm 17.3 13.8 15.6 90 1.0 SE 28 35 15 19 1025.2 - 2.4
22/04:00pm 16.7 13.3 13.6 82 1.7 SSE 24 33 13 18 1025.3 - 2.4
22/03:30pm 16.9 15.4 15.2 90 1.0 SE 17 30 9 16 1025.4 - 2.4
22/03:00pm 16.6 14.2 14.4 87 1.3 SSE 20 26 11 14 1025.4 1025.4 2.4
22/02:30pm 16.1 11.6 15.0 93 0.6 SE 32 43 17 23 1025.6 - 2.4
22/02:00pm 16.0 13.3 14.5 91 0.9 SSE 22 33 12 18 1025.8 - 2.4
22/01:30pm 15.8 14.0 15.6 99 0.1 S 19 30 10 16 1026.1 - 2.2
22/01:00pm 15.8 14.8 15.6 99 0.1 SSE 15 24 8 13 1026.3 - 2.0
22/12:30pm 15.9 14.2 15.7 99 0.1 S 19 30 10 16 1026.6 - 1.8
22/12:00pm 16.7 14.6 15.1 90 0.9 S 20 28 11 15 1027.0 1027.0 1.8
22/11:30am 16.7 13.7 14.9 89 1.0 SSE 24 33 13 18 1027.2 - 1.8
22/11:00am 15.0 14.2 15.0 100 0.0 S 13 17 7 9 1027.7 - 1.8
22/10:30am 14.6 13.6 14.6 100 0.0 SSW 13 19 7 10 1028.0 - 1.8
22/10:00am 14.4 14.7 14.4 100 0.0 SW 6 11 3 6 1028.4 - 1.8
22/09:30am 13.9 13.1 13.9 100 0.0 SSW 11 19 6 10 1028.4 - 1.8
22/09:00am 14.6 13.2 14.4 99 0.1 SSE 15 30 8 16 1028.1 1028.1 39.6
22/08:30am 14.8 14.6 14.6 99 0.1 SE 9 13 5 7 1027.9 - 36.4
22/08:00am 14.8 11.3 14.6 99 0.1 SSE 26 35 14 19 1027.6 - 34.2
22/07:30am 14.5 11.4 14.5 100 0.0 ESE 24 41 13 22 1027.5 - 31.8
22/07:00am 14.6 11.8 14.4 99 0.1 E 22 35 12 19 1027.2 - 16.8
22/06:30am 15.6 12.9 14.5 93 0.6 SSE 22 33 12 18 1026.6 - 14.0
22/06:00am 15.8 11.8 14.0 89 1.0 SE 28 37 15 20 1026.0 1025.9 14.0
22/05:30am 16.2 11.8 14.2 88 1.1 SE 30 43 16 23 1025.9 - 14.0
22/05:00am 16.0 11.9 13.8 87 1.2 SE 28 35 15 19 1025.7 - 14.0
22/04:30am 16.1 13.2 14.1 88 1.1 SSE 22 32 12 17 1025.6 - 14.0
22/04:00am 16.2 11.5 14.9 92 0.7 SE 33 41 18 22 1025.5 - 14.0
22/03:30am 16.1 10.9 13.4 84 1.5 SE 33 43 18 23 1025.2 - 14.0
22/03:00am 16.6 11.4 12.9 79 2.0 SE 32 41 17 22 1025.2 1025.2 14.0
22/02:30am 16.5 12.0 13.8 84 1.5 SE 30 37 16 20 1025.5 - 14.0
22/02:00am 16.4 11.2 14.4 88 1.1 SE 35 44 19 24 1025.6 - 14.0
22/01:30am 16.6 11.7 14.2 86 1.4 SE 33 41 18 22 1025.8 - 14.0
22/01:00am 16.9 13.2 14.0 83 1.6 SE 26 35 14 19 1026.1 - 14.0
22/12:30am 16.9 12.5 14.0 83 1.6 SE 30 35 16 19 1025.9 - 14.0
22/12:00am 17.0 13.2 14.6 86 1.4 SE 28 35 15 19 1025.9 1025.9 14.0
 
Date/Time
EST
Temp
°C
App
Temp
°C
Dew
Point
Rel
Hum
%
Delta-T
°C
Wind Press
QNH
hPa
Press
MSL
hPa
Rain
since 9 am
mm
Dir
 
Spd
km/h
Gust
km/h
Spd
kts
Gust
kts
21/11:30pm 17.2 14.3 13.9 81 1.9 SE 22 30 12 16 1026.3 - 14.0
21/11:00pm 17.0 14.4 13.9 82 1.8 SE 20 26 11 14 1026.1 - 14.0
21/10:30pm 17.0 14.1 14.1 83 1.7 SE 22 28 12 15 1026.3 - 14.0
21/10:00pm 16.9 13.0 13.4 80 2.0 SE 26 35 14 19 1025.8 - 14.0
21/09:30pm 16.9 12.4 13.8 82 1.8 SE 30 37 16 20 1026.0 - 14.0
21/09:00pm 16.9 12.9 14.0 83 1.6 SE 28 33 15 18 1026.1 1026.1 14.0
21/08:30pm 16.6 12.6 14.1 85 1.4 SE 28 35 15 19 1026.1 - 14.0
21/08:16pm 15.9 12.1 14.8 93 0.6 SE 28 39 15 21 1026.0 - 14.0
21/08:15pm 15.9 12.1 14.8 93 0.6 SE 28 39 15 21 1026.0 - 14.0
21/08:00pm 14.4 13.7 14.2 99 0.1 S 11 19 6 10 1026.1 - 14.0
21/07:50pm 14.6 13.9 14.4 99 0.1 S 11 15 6 8 1026.1 - 14.0
21/07:30pm 14.7 12.9 14.5 99 0.1 SSE 17 24 9 13 1026.0 - 13.6
21/07:00pm 14.6 8.6 14.4 99 0.1 SSE 39 54 21 29 1025.6 - 12.4
21/06:55pm 14.9 10.3 14.7 99 0.1 SSE 32 52 17 28 1025.6 - 12.4
21/06:54pm 14.9 10.1 14.7 99 0.1 SSE 33 44 18 24 1025.6 - 12.4
21/06:52pm 14.9 11.1 14.7 99 0.1 SSE 28 43 15 23 1025.6 - 12.4
21/06:30pm 14.6 14.8 14.6 100 0.0 SSW 7 11 4 6 1025.4 - 12.2
21/06:00pm 14.9 12.8 14.7 99 0.1 SE 19 26 10 14 1025.3 1025.3 11.4
21/05:30pm 15.1 12.9 14.9 99 0.1 SE 20 28 11 15 1025.0 - 10.6
21/05:00pm 14.2 11.7 14.2 100 0.0 S 20 32 11 17 1024.6 - 10.0
21/04:30pm 15.5 13.4 15.3 99 0.1 SE 20 26 11 14 1023.9 - 8.6
21/04:00pm 15.3 12.3 14.7 96 0.3 SSE 24 32 13 17 1023.8 - 8.4
21/03:30pm 15.2 13.3 15.2 100 0.0 S 19 30 10 16 1023.5 - 8.2
21/03:00pm 14.8 12.7 14.8 100 0.0 S 19 30 10 16 1023.6 1023.6 7.8
21/02:30pm 15.1 12.9 14.9 99 0.1 SSE 20 30 11 16 1023.6 - 6.8
21/02:00pm 16.7 16.4 16.5 99 0.1 S 13 20 7 11 1023.5 - 3.6
21/01:30pm 16.0 14.1 15.8 99 0.1 S 20 30 11 16 1023.7 - 3.6
21/01:00pm 15.5 14.4 15.3 99 0.1 SSE 15 20 8 11 1023.9 - 3.6
21/12:30pm 15.2 10.6 15.0 99 0.1 SE 33 44 18 24 1024.3 - 0.8
21/12:19pm 16.5 11.0 14.7 89 1.0 SE 37 44 20 24 1024.3 - 0.2
21/12:18pm 16.5 11.0 14.7 89 1.0 SE 37 44 20 24 1024.3 - 0.2
21/12:00pm 17.4 14.1 15.0 86 1.4 SSE 26 43 14 23 1024.5 1024.5 0.2
21/11:30am 17.2 13.8 14.7 85 1.4 SSE 26 37 14 20 1024.9 - 0.2
21/11:00am 16.8 14.2 15.0 89 1.0 S 22 35 12 19 1025.0 - 0.2
21/10:30am 16.6 13.5 14.6 88 1.1 SSE 24 35 13 19 1025.3 - 0.0
21/10:19am 15.5 10.7 13.9 90 0.9 SE 32 50 17 27 1025.5 - 0.0
21/10:14am 16.1 12.0 13.9 87 1.2 SSE 28 50 15 27 1025.5 - 0.0
21/10:00am 17.2 14.5 14.5 84 1.6 S 22 35 12 19 1025.3 - 0.0
21/09:30am 17.3 14.2 14.6 84 1.6 SSE 24 39 13 21 1025.4 - 0.0
21/09:00am 16.7 13.9 14.2 85 1.4 S 22 41 12 22 1025.3 1025.3 3.2
21/08:30am 16.4 14.0 14.4 88 1.1 S 20 35 11 19 1025.1 - 3.2
21/08:00am 14.7 12.2 13.4 92 0.7 S 19 30 10 16 1025.1 - 3.2
21/07:30am 14.4 11.9 13.4 94 0.6 S 19 30 10 16 1024.8 - 3.2
21/07:00am 13.3 11.8 13.1 99 0.1 SSW 13 24 7 13 1024.7 - 3.2
21/06:30am 12.6 11.6 12.4 99 0.1 SSW 9 13 5 7 1024.4 - 3.2
21/06:00am 12.7 12.2 12.5 99 0.1 SSW 7 13 4 7 1024.3 1024.2 3.2
21/05:30am 12.5 11.5 12.3 99 0.1 S 9 13 5 7 1024.0 - 3.0
21/05:00am 12.4 11.8 12.2 99 0.1 WSW 7 9 4 5 1023.7 - 3.0
21/04:30am 12.6 11.6 12.4 99 0.1 SW 9 13 5 7 1023.5 - 2.6
21/04:00am 12.7 11.4 12.5 99 0.1 SW 11 19 6 10 1023.1 - 2.6
21/03:30am 13.1 11.5 12.9 99 0.1 S 13 20 7 11 1023.4 - 2.4
21/03:00am 13.1 11.2 12.9 99 0.1 S 15 20 8 11 1023.2 1023.1 2.0
21/02:30am 13.0 11.4 12.8 99 0.1 S 13 19 7 10 1023.2 - 1.8
21/02:00am 13.5 11.9 12.7 95 0.4 S 13 19 7 10 1023.4 - 1.2
21/01:30am 14.1 12.5 12.7 91 0.8 S 13 24 7 13 1023.3 - 1.2
21/01:00am 14.1 12.3 13.3 95 0.4 S 15 20 8 11 1023.2 - 1.0
21/12:30am 14.2 12.9 13.7 97 0.3 SSW 13 20 7 11 1023.3 - 1.0
21/12:00am 14.0 11.6 13.8 99 0.1 S 19 30 10 16 1023.2 1023.2 1.0
 
Date/Time
EST
Temp
°C
App
Temp
°C
Dew
Point
Rel
Hum
%
Delta-T
°C
Wind Press
QNH
hPa
Press
MSL
hPa
Rain
since 9 am
mm
Dir
 
Spd
km/h
Gust
km/h
Spd
kts
Gust
kts
20/11:30pm 14.8 12.5 14.6 99 0.1 S 20 33 11 18 1023.1 - 1.0
20/11:00pm 14.1 11.5 13.8 98 0.2 S 20 30 11 16 1023.3 - 1.0
20/10:30pm 15.8 11.6 14.7 93 0.6 SSE 30 43 16 23 1023.4 - 0.0
20/10:00pm 16.7 13.0 14.0 84 1.5 SSE 26 39 14 21 1022.9 - 0.0
20/09:30pm 16.1 12.2 14.3 89 1.0 SSE 28 46 15 25 1023.1 - 0.0
20/09:16pm 15.8 11.7 13.8 88 1.1 SSE 28 48 15 26 1023.1 - 0.0
20/09:00pm 16.4 12.6 14.8 90 0.9 SSE 28 46 15 25 1023.0 1023.0 0.0
20/08:57pm 16.5 12.8 14.9 90 0.9 SSE 28 46 15 25 1023.0 - 0.0
20/08:30pm 16.6 11.9 14.8 89 1.0 SSE 33 44 18 24 1022.8 - 0.0
20/08:00pm 17.0 11.8 14.5 85 1.4 SSE 35 57 19 31 1022.4 - 0.0
20/07:40pm 17.0 12.5 15.0 88 1.2 SSE 32 50 17 27 1022.3 - 0.0
20/07:30pm 17.1 12.2 15.3 89 1.0 SSE 35 52 19 28 1022.1 - 0.0
20/07:00pm 17.3 12.4 15.3 88 1.2 SSE 35 54 19 29 1021.7 - 0.0
20/06:30pm 17.4 11.9 13.5 78 2.2 SSE 35 54 19 29 1021.4 - 0.0
20/06:17pm 17.5 11.2 13.6 78 2.2 SSE 39 57 21 31 1021.2 - 0.0
20/06:16pm 17.5 11.2 13.6 78 2.2 SSE 39 57 21 31 1021.2 - 0.0
20/06:00pm 17.5 12.6 14.2 81 1.9 SSE 33 46 18 25 1021.2 1021.2 0.0
20/05:30pm 17.5 12.6 13.8 79 2.1 SSE 32 50 17 27 1020.8 - 0.0
20/05:00pm 17.5 13.0 13.8 79 2.1 SSE 30 48 16 26 1020.5 - 0.0
20/04:58pm 17.5 13.0 13.8 79 2.1 SSE 30 48 16 26 1020.5 - 0.0
20/04:30pm 17.7 13.8 13.2 75 2.5 SSE 26 43 14 23 1020.2 - 0.0
20/04:07pm 18.2 13.9 13.1 72 2.9 SSE 28 46 15 25 1020.0 - 0.0
20/04:06pm 18.2 13.9 13.1 72 2.9 SSE 28 46 15 25 1020.0 - 0.0
20/04:00pm 18.2 13.4 12.9 71 3.0 SSE 30 43 16 23 1020.0 - 0.0
20/03:30pm 18.5 13.9 13.4 72 2.9 SSE 30 46 16 25 1019.6 - 0.0
20/03:00pm 18.7 14.2 13.8 73 2.8 SSE 30 54 16 29 1019.6 1019.6 0.0
20/02:52pm 18.4 13.5 13.7 74 2.7 SSE 32 54 17 29 1019.5 - 0.0
20/02:30pm 18.8 14.0 14.1 74 2.7 SSE 32 44 17 24 1019.5 - 0.0
20/02:00pm 18.9 14.6 13.3 70 3.2 SSE 28 50 15 27 1019.4 - 0.0
20/01:50pm 18.8 14.2 13.4 71 3.1 SSE 30 50 16 27 1019.4 - 0.0
20/01:30pm 19.1 14.8 13.3 69 3.3 SSE 28 43 15 23 1019.4 - 0.0
20/01:01pm 19.4 15.2 13.6 69 3.3 SSE 28 46 15 25 1019.5 - 0.0
20/01:00pm 19.4 15.2 13.6 69 3.3 SSE 28 46 15 25 1019.5 - 0.0
20/12:49pm 19.1 14.8 13.1 68 3.4 SSE 28 46 15 25 1019.7 - 0.0
20/12:30pm 19.2 15.4 13.6 70 3.2 SSE 26 43 14 23 1019.8 - 0.0
20/12:01pm 19.0 14.9 13.8 72 3.0 SSE 28 46 15 25 1020.2 - 0.0
20/12:00pm 19.2 15.2 14.0 72 3.0 SSE 28 46 15 25 1020.2 1020.2 0.0
20/11:30am 19.1 15.3 13.5 70 3.2 SSE 26 44 14 24 1020.4 - 0.0
20/11:19am 18.8 14.6 13.4 71 3.1 SSE 28 50 15 27 1020.4 - 0.0
20/11:18am 18.8 14.6 13.4 71 3.1 SSE 28 50 15 27 1020.4 - 0.0
20/11:00am 18.9 14.7 13.5 71 3.1 SSE 28 39 15 21 1020.5 - 0.0
20/10:30am 18.4 14.6 13.7 74 2.7 SSE 26 41 14 22 1020.6 - 0.0
20/10:00am 18.2 14.8 13.7 75 2.6 S 24 37 13 20 1020.4 - 0.0
20/09:30am 16.9 15.6 12.4 75 2.5 SSW 11 17 6 9 1020.4 - 0.0
20/09:00am 15.8 13.9 11.8 77 2.2 SSW 13 20 7 11 1020.5 1020.5 0.6
20/08:30am 14.6 13.3 11.4 81 1.7 WSW 9 17 5 9 1020.5 - 0.6
20/08:00am 13.3 11.9 11.0 86 1.2 W 9 15 5 8 1020.3 - 0.6
20/07:30am 12.0 10.5 10.6 91 0.7 W 9 13 5 7 1020.1 - 0.6
20/07:00am 11.0 9.5 10.5 97 0.3 W 9 11 5 6 1019.6 - 0.6
20/06:30am 11.2 9.7 10.4 95 0.4 SW 9 15 5 8 1019.2 - 0.6
20/06:00am 10.7 9.6 10.1 96 0.3 WSW 6 9 3 5 1018.9 1018.9 0.6
20/05:30am 10.7 9.6 9.8 94 0.5 WSW 6 9 3 5 1018.7 - 0.6
20/05:00am 11.2 9.6 10.3 94 0.5 SW 9 13 5 7 1018.2 - 0.6
20/04:30am 11.0 9.5 10.5 97 0.3 W 9 13 5 7 1017.9 - 0.6
20/04:00am 11.0 9.5 10.7 98 0.2 W 9 13 5 7 1017.6 - 0.6
20/03:30am 11.3 9.5 11.0 98 0.2 W 11 13 6 7 1017.2 - 0.6
20/03:00am 11.7 10.4 11.4 98 0.2 W 9 11 5 6 1016.9 1016.8 0.6
20/02:30am 12.2 10.9 11.3 94 0.5 SW 9 15 5 8 1016.7 - 0.6
20/02:00am 11.9 11.3 11.6 98 0.2 WSW 6 9 3 5 1016.8 - 0.6
20/01:30am 12.2 11.5 11.9 98 0.2 SW 7 13 4 7 1016.8 - 0.6
20/01:00am 12.5 11.9 12.2 98 0.2 SW 7 15 4 8 1016.7 - 0.6
20/12:30am 12.8 12.2 12.3 97 0.3 SW 7 13 4 7 1016.5 - 0.6
20/12:00am 12.9 11.9 12.3 96 0.3 SW 9 17 5 9 1016.5 1016.4 0.6
 
Date/Time
EST
Temp
°C
App
Temp
°C
Dew
Point
Rel
Hum
%
Delta-T
°C
Wind Press
QNH
hPa
Press
MSL
hPa
Rain
since 9 am
mm
Dir
 
Spd
km/h
Gust
km/h
Spd
kts
Gust
kts
19/11:30pm 12.6 12.0 12.3 98 0.2 SW 7 11 4 6 1016.4 - 0.6
19/11:00pm 12.8 12.3 12.6 99 0.1 WSW 7 9 4 5 1016.4 - 0.6
19/10:30pm 13.6 13.2 13.0 96 0.3 SW 7 13 4 7 1016.1 - 0.6
19/10:00pm 13.9 13.6 13.4 97 0.3 SW 7 13 4 7 1016.1 - 0.6
19/09:30pm 14.4 13.5 13.8 96 0.3 SSW 11 17 6 9 1016.2 - 0.6
19/09:00pm 14.3 13.6 13.3 94 0.6 SW 9 17 5 9 1015.8 1015.6 0.6
19/08:30pm 14.6 13.7 13.6 94 0.6 SSW 11 17 6 9 1015.7 - 0.6
19/08:00pm 14.3 14.3 14.1 99 0.1 SSW 7 11 4 6 1015.7 - 0.6
19/07:30pm 14.4 14.3 13.8 96 0.3 SW 7 9 4 5 1015.4 - 0.6
19/07:00pm 14.7 14.8 13.9 95 0.4 SW 6 9 3 5 1014.7 - 0.6
19/06:30pm 15.1 15.0 14.0 93 0.6 WSW 7 11 4 6 1014.2 - 0.6
19/06:00pm 15.4 15.6 14.3 93 0.6 SW 6 11 3 6 1013.9 1013.9 0.6

Other Formats:

Comma delimited format used in spreadsheet applications
http://www.bom.gov.au/fwo/IDN60801/IDN60801.94589.axf

JavaScript Object Notation format (JSON) in row-major order
http://www.bom.gov.au/fwo/IDN60801/IDN60801.94589.json